Thimphu, Bhutan
Current Conditions -  °F | °C
As of 4:20 PM on Friday 24 Oct 2014 (Local Time) from VQPR Reporting Station
Scattered Clouds Scattered Clouds  
Wind Chill: 66°   Ceiling: Unl
Heat Index: 66°   Visibility: 6mi
Dew Point: 39°   Wind: 12mph
Humidity: 37%   Direction: 110°ESE
Pressure: 30.09"   Gusts: NA
Location:  27.48°N, 89.7°E
Report Text: VQPR 241020Z 11010KT 9999 SCT040 19/04 Q1019 NOSIG
Loading
Personal Weather Stations






























Interactive Weather Map
Tropical Storm Tracking
New forecast layout! Learn more

10-Day Weather Forecast

Advertisements
Track Severe Weather on mobile